< < Back
Terminal Aerodrome Forecast


Current Version              Previous Versions:   1  2  3  4  5  6  7  8  9  

Terminal Aerodrome Forecast

203
FTUS42 KGSP 281729
TAFHKY
TAF
KHKY 281729Z 2818/2918 VRB04KT P6SM SKC
     FM290100 17003KT P6SM FEW160
     FM291300 18004KT P6SM SCT140
     FM291600 20007KT P6SM BKN140=



Latest METAR

013
SAUS70 KWBC 291600 RRA
MTRHKY
METAR KHKY 291553Z 20010KT 10SM CLR 04/M07 A3025 RMK AO2 SLP241
T00441067


USA.gov is the U.S. government's official web portal to all federal, state and local government web resources and services.